This is the latest recevied weather packets stored in our database for station/object EA7AVH-10. If no packets are shown the sender has not sent any weather packets the latest 1 day(s).
| Time | Temp. | Humidity | Pressure | Rain* | Wind** | Luminosity | Snow |
|---|---|---|---|---|---|---|---|
| 1778114850 | 13.33° C | 78% | 919.2 hPa | - | - | - | - |
| 1778113949 | 13.33° C | 79% | 919.1 hPa | - | - | - | - |
| 1778113048 | 13.33° C | 78% | 919.3 hPa | - | - | - | - |
| 1778111247 | 13.33° C | 78% | 919.3 hPa | - | - | - | - |
| 1778108565 | 13.33° C | 78% | 919.5 hPa | - | - | - | - |
| 1778107664 | 13.33° C | 78% | 919.7 hPa | - | - | - | - |
| 1778103160 | 13.33° C | 77% | 919.7 hPa | - | - | - | - |
| 1778099557 | 13.89° C | 74% | 919.4 hPa | - | - | - | - |
| 1778095053 | 14.44° C | 67% | 918.4 hPa | - | - | - | - |
| 1778094152 | 14.44° C | 66% | 918.2 hPa | - | - | - | - |
| 1778090548 | 16.11° C | 69% | 917.7 hPa | - | - | - | - |
| 1778086063 | 18.89° C | 58% | 917 hPa | - | - | - | - |
| 1778085162 | 20° C | 54% | 916.8 hPa | - | - | - | - |
| 1778080658 | 22.78° C | 37% | 916.8 hPa | - | - | - | - |
| 1778076154 | 24.44° C | 32% | 917 hPa | - | - | - | - |
| 1778075253 | 23.89° C | 32% | 917.2 hPa | - | - | - | - |
| 1778072550 | 22.78° C | 33% | 917.4 hPa | - | - | - | - |
| 1778068947 | 23.33° C | 30% | 917.8 hPa | - | - | - | - |
| 1778066244 | 25° C | 26% | 918.2 hPa | - | - | - | - |
| 1778062661 | 29.44° C | 23% | 918.5 hPa | - | - | - | - |
| 1778061760 | 31.67° C | 23% | 918.7 hPa | - | - | - | - |
| 1778059958 | 30° C | 24% | 918.8 hPa | - | - | - | - |
| 1778059058 | 29.44° C | 26% | 918.8 hPa | - | - | - | - |
| 1778058157 | 30° C | 25% | 918.7 hPa | - | - | - | - |
| 1778057256 | 28.33° C | 29% | 918.9 hPa | - | - | - | - |
* Rain since midnight (hover to see other rain measurements)
** Current wind speed in m/s (hover to see current wind gust speed)